Time;durP1;ratioP1;P1;durP2;ratioP2;P2;SDS_P1;SDS_P2;PMS_P1;PMS_P2;Temp;Humidity;BMP_temperature;BMP_pressure;BME280_temperature;BME280_humidity;BME280_pressure;Samples;Min_cycle;Max_cycle;Signal;HPM_P1;HPM_P2
2023/07/24 00:00:29;;;;;;;12.50;8.50;;;;;;;-141.97;47.98;47401.84;5032588;28;20194;-78
2023/07/24 00:02:55;;;;;;;14.83;8.50;;;;;;;-141.97;47.58;47346.09;5032333;28;20512;-78
2023/07/24 00:05:21;;;;;;;13.53;8.67;;;;;;;-141.97;48.03;47353.78;5032876;28;20228;-79
2023/07/24 00:07:46;;;;;;;14.13;9.07;;;;;;;-141.97;47.95;47376.84;5032872;28;20182;-78
2023/07/24 00:10:12;;;;;;;13.87;9.90;;;;;;;-141.97;48.21;47374.94;5032630;28;20233;-78
2023/07/24 00:12:37;;;;;;;15.40;10.13;;;;;;;-141.97;48.37;47342.25;5032303;28;20163;-78
2023/07/24 00:15:03;;;;;;;16.03;9.80;;;;;;;-141.97;48.61;47346.09;5032201;28;20228;-78
2023/07/24 00:17:29;;;;;;;15.10;10.40;;;;;;;-141.97;48.98;47357.63;5030323;28;20166;-78
2023/07/24 00:19:54;;;;;;;18.13;10.47;;;;;;;-141.97;49.10;47392.22;5031829;28;20204;-78
2023/07/24 00:22:19;;;;;;;17.20;10.93;;;;;;;-141.97;48.74;47363.41;5031896;28;20170;-78
2023/07/24 00:24:45;;;;;;;16.40;10.80;;;;;;;-141.97;48.79;47365.31;5031794;28;20247;-78
2023/07/24 00:27:10;;;;;;;18.00;10.83;;;;;;;-141.97;48.87;47365.31;5031640;28;20162;-78
2023/07/24 00:29:35;;;;;;;15.77;10.47;;;;;;;-141.97;48.68;47396.06;5031359;28;20670;-78
2023/07/24 00:32:01;;;;;;;16.77;10.27;;;;;;;-141.97;48.46;47390.31;5062982;28;20178;-78
2023/07/24 00:34:26;;;;;;;13.83;9.33;;;;;;;-141.97;48.53;47355.72;5031156;28;20181;-78
2023/07/24 00:36:52;;;;;;;13.03;9.13;;;;;;;-141.97;50.15;47353.78;5031788;28;20247;-78
2023/07/24 00:39:17;;;;;;;15.53;9.30;;;;;;;-141.97;51.75;47334.56;5031385;28;20167;-78
2023/07/24 00:41:43;;;;;;;14.53;9.40;;;;;;;-141.97;52.34;47565.22;5031384;28;20209;-78
2023/07/24 00:44:08;;;;;;;14.40;9.30;;;;;;;-141.97;52.17;47361.47;5031524;28;20531;-78
2023/07/24 00:46:35;;;;;;;14.57;9.27;;;;;;;-141.97;53.36;47359.56;5063088;28;20201;-78
2023/07/24 00:49:02;;;;;;;14.43;9.33;;;;;;;-141.97;54.56;47399.91;5031153;28;20182;-78
2023/07/24 00:51:28;;;;;;;12.63;8.73;;;;;;;-141.97;56.54;47351.88;5031205;28;20166;-78
2023/07/24 00:54:02;;;;;;;13.67;9.73;;;;;;;-141.97;58.21;47369.16;5031524;28;20173;-78
2023/07/24 00:56:28;;;;;;;18.07;10.37;;;;;;;-141.97;58.83;47553.69;5031291;28;20174;-78
2023/07/24 00:58:57;;;;;;;14.07;9.93;;;;;;;-141.97;60.96;47342.25;5031344;28;20173;-78
2023/07/24 01:01:24;;;;;;;14.63;9.70;;;;;;;-141.97;61.13;47311.50;5031494;28;20696;-78
2023/07/24 01:03:51;;;;;;;13.57;10.23;;;;;;;-141.97;62.72;47380.69;5031028;28;20170;-78
2023/07/24 01:06:16;;;;;;;15.23;10.50;;;;;;;-141.97;62.98;47357.63;5030449;28;20166;-76
2023/07/24 01:08:41;;;;;;;13.67;10.33;;;;;;;-141.97;64.14;47269.22;5030854;28;20189;-78
2023/07/24 01:11:13;;;;;;;14.77;10.40;;;;;;;-141.97;65.74;47346.09;5030815;28;20176;-78
2023/07/24 01:13:44;;;;;;;15.70;11.10;;;;;;;-141.97;67.27;47369.16;5030724;28;20166;-79
2023/07/24 01:16:14;;;;;;;14.20;11.27;;;;;;;-141.97;68.03;47355.72;5030811;28;20178;-79
2023/07/24 01:18:39;;;;;;;16.00;11.37;;;;;;;-141.97;68.83;47419.13;5030418;28;20176;-78
2023/07/24 01:21:08;;;;;;;16.73;11.43;;;;;;;-141.97;69.76;47403.75;5030674;28;20658;-78
2023/07/24 01:24:03;;;;;;;15.17;11.40;;;;;;;-141.97;70.50;47373.00;5030614;28;20517;-78
2023/07/24 01:26:28;;;;;;;15.73;11.10;;;;;;;-141.97;71.51;47407.59;5030848;28;20188;-78
2023/07/24 01:28:54;;;;;;;16.67;11.10;;;;;;;-141.97;71.95;47422.97;5030476;28;20169;-78
2023/07/24 01:31:19;;;;;;;18.37;11.77;;;;;;;-141.97;72.55;47369.16;5030320;28;20166;-78
2023/07/24 01:33:45;;;;;;;15.57;10.87;;;;;;;-141.97;72.20;47373.00;5030577;28;20220;-79
2023/07/24 01:36:11;;;;;;;16.30;10.83;;;;;;;-141.97;72.95;47380.69;5030359;28;20269;-79
2023/07/24 01:38:37;;;;;;;14.07;11.27;;;;;;;-141.97;73.72;47396.06;5030242;28;20537;-79
2023/07/24 01:41:03;;;;;;;15.33;10.70;;;;;;;-141.97;73.97;47396.06;5030354;28;20202;-79
2023/07/24 01:43:30;;;;;;;16.23;11.60;;;;;;;-141.97;75.47;47411.44;5030701;28;20555;-78
2023/07/24 01:45:56;;;;;;;13.60;11.10;;;;;;;-141.97;76.02;47422.97;5030231;28;20591;-79
2023/07/24 01:48:21;;;;;;;16.00;11.60;;;;;;;-141.97;77.09;47403.75;5061992;28;20186;-79
2023/07/24 01:50:47;;;;;;;15.10;11.57;;;;;;;-141.97;77.50;47398.00;5030274;28;20173;-79
2023/07/24 01:53:12;;;;;;;16.80;11.87;;;;;;;-141.97;77.01;47367.25;5030345;28;20166;-79
2023/07/24 01:55:38;;;;;;;16.97;11.87;;;;;;;-141.97;76.86;47392.22;5030177;28;20239;-79
2023/07/24 01:58:04;;;;;;;15.77;11.40;;;;;;;-141.97;77.15;47359.56;5029977;28;20170;-80
2023/07/24 02:00:29;;;;;;;14.87;11.43;;;;;;;-141.97;77.61;47421.06;5030160;28;20205;-79
2023/07/24 02:02:54;;;;;;;19.53;12.47;;;;;;;-141.97;78.10;47390.31;5029944;28;20491;-79
2023/07/24 02:05:20;;;;;;;16.47;12.47;;;;;;;-141.97;79.60;47388.38;5032951;28;20275;-79
2023/07/24 02:07:45;;;;;;;17.67;12.77;;;;;;;-141.97;81.60;47409.53;5050041;28;20176;-79
2023/07/24 02:10:11;;;;;;;16.73;13.07;;;;;;;-141.97;82.29;47409.53;5049987;28;20173;-79
2023/07/24 02:12:36;;;;;;;20.23;13.30;;;;;;;-141.97;83.07;47388.38;5049989;28;20220;-79
2023/07/24 02:15:02;;;;;;;19.07;12.43;;;;;;;-141.97;82.76;47421.06;5050512;28;20166;-78
2023/07/24 02:17:27;;;;;;;18.33;13.17;;;;;;;-141.97;83.21;47417.22;5049631;28;20574;-79
2023/07/24 02:19:53;;;;;;;20.13;13.13;;;;;;;-141.97;83.88;47411.44;5049753;28;20180;-79
2023/07/24 02:22:18;;;;;;;18.13;13.57;;;;;;;-141.97;84.50;47415.28;5049427;28;20241;-79
2023/07/24 02:24:44;;;;;;;18.83;14.03;;;;;;;-141.97;84.93;47442.19;5049657;28;20176;-79
2023/07/24 02:27:23;;;;;;;23.93;14.63;;;;;;;-141.97;85.07;47405.69;5049320;28;20173;-79
2023/07/24 02:29:49;;;;;;;22.57;14.80;;;;;;;-141.97;85.41;47384.53;5049486;28;20275;-79
2023/07/24 02:32:14;;;;;;;19.03;14.23;;;;;;;-141.97;85.39;47463.34;5049429;28;20639;-79
2023/07/24 02:34:40;;;;;;;19.83;14.97;;;;;;;-141.97;85.48;47457.56;5049343;28;20246;-79
2023/07/24 02:37:05;;;;;;;24.87;15.47;;;;;;;-141.97;85.76;47396.06;5049582;28;20228;-79
2023/07/24 02:39:30;;;;;;;23.83;14.43;;;;;;;-141.97;85.53;47424.91;5049637;28;20181;-79
2023/07/24 02:41:56;;;;;;;25.20;15.50;;;;;;;-141.97;85.78;47436.44;5052949;28;20239;-79
2023/07/24 02:44:21;;;;;;;26.20;15.80;;;;;;;-141.97;85.59;47405.69;5053376;28;20260;-78
2023/07/24 02:46:46;;;;;;;26.60;16.10;;;;;;;-141.97;86.19;47415.28;5053021;28;20204;-79
2023/07/24 02:49:12;;;;;;;25.83;15.90;;;;;;;-141.97;86.59;47415.28;5053082;28;20232;-79
2023/07/24 02:51:37;;;;;;;27.30;16.10;;;;;;;-141.97;86.28;47422.97;5052905;28;20609;-79
2023/07/24 02:54:02;;;;;;;23.57;15.80;;;;;;;-141.97;85.90;47419.13;5052873;28;20169;-78
2023/07/24 02:56:28;;;;;;;25.90;16.73;;;;;;;-141.97;85.90;47434.50;5052909;28;20178;-78
2023/07/24 02:58:53;;;;;;;31.83;18.10;;;;;;;-141.97;86.25;47426.81;5052804;28;20211;-78
2023/07/24 03:01:19;;;;;;;27.90;18.87;;;;;;;-141.97;86.43;47424.91;5052511;28;20224;-78
2023/07/24 03:03:44;;;;;;;30.83;19.20;;;;;;;-141.97;86.57;47417.22;5052686;28;20548;-79
2023/07/24 03:06:09;;;;;;;34.50;21.20;;;;;;;-141.97;86.21;47430.66;5052629;28;20193;-79
2023/07/24 03:08:35;;;;;;;29.70;18.97;;;;;;;-141.97;85.30;47401.84;5053154;28;20169;-78
2023/07/24 03:11:02;;;;;;;30.20;19.27;;;;;;;-141.97;84.96;47453.72;5052542;28;20177;-78
2023/07/24 03:13:27;;;;;;;33.17;20.30;;;;;;;-141.97;85.18;47447.97;5052633;28;20182;-80
2023/07/24 03:15:57;;;;;;;34.93;20.70;;;;;;;-141.97;86.58;47388.38;5052386;28;20252;-79
2023/07/24 03:18:22;;;;;;;39.03;22.13;;;;;;;-141.97;85.67;47401.84;5052726;28;20771;-79
2023/07/24 03:20:48;;;;;;;36.23;20.60;;;;;;;-141.97;86.00;47422.97;5051525;28;20284;-79
2023/07/24 03:23:13;;;;;;;36.63;22.10;;;;;;;-141.97;86.34;47442.19;5052338;28;20157;-79
2023/07/24 03:25:39;;;;;;;41.70;22.93;;;;;;;-141.97;87.04;47449.88;5052690;28;20162;-79
2023/07/24 03:28:04;;;;;;;38.47;22.07;;;;;;;-141.97;87.18;47434.50;5052700;28;20534;-79
2023/07/24 03:30:30;;;;;;;37.20;21.90;;;;;;;-141.97;87.53;47438.34;5052440;28;20298;-78
2023/07/24 03:32:55;;;;;;;45.30;23.40;;;;;;;-141.97;87.96;47442.19;5052262;28;20246;-79
2023/07/24 03:35:20;;;;;;;43.80;23.23;;;;;;;-141.97;88.67;47453.72;5052381;28;20256;-77
2023/07/24 03:37:46;;;;;;;45.63;24.30;;;;;;;-141.97;89.15;47434.50;5052108;28;20232;-78
2023/07/24 03:40:12;;;;;;;42.17;22.00;;;;;;;-141.97;87.83;47474.88;5052087;28;20742;-79
2023/07/24 03:42:37;;;;;;;44.80;23.23;;;;;;;-141.97;87.36;47465.25;5052472;28;20187;-78
2023/07/24 03:45:03;;;;;;;40.70;22.60;;;;;;;-141.97;87.09;47457.56;5050651;28;20266;-79
2023/07/24 03:47:28;;;;;;;36.53;22.83;;;;;;;-141.97;85.33;47407.59;5051919;28;20166;-78
2023/07/24 03:49:54;;;;;;;36.87;22.10;;;;;;;-141.97;84.87;47330.72;5051888;28;20227;-78
2023/07/24 03:52:20;;;;;;;38.17;22.17;;;;;;;-141.97;84.24;47419.13;5050580;28;20169;-79
2023/07/24 03:54:46;;;;;;;37.87;21.90;;;;;;;-141.97;83.85;47430.66;5051804;28;20161;-79
2023/07/24 03:57:11;;;;;;;37.50;22.53;;;;;;;-141.97;83.13;47457.56;5052143;28;20193;-78
2023/07/24 03:59:37;;;;;;;35.20;21.83;;;;;;;-141.97;82.88;47422.97;5051600;28;20180;-79
2023/07/24 04:02:02;;;;;;;35.27;20.90;;;;;;;-141.97;81.58;47422.97;5044003;28;20514;-78
2023/07/24 04:04:28;;;;;;;36.20;20.90;;;;;;;-141.97;81.28;47434.50;5031741;28;20253;-79
2023/07/24 04:06:53;;;;;;;37.37;21.57;;;;;;;-141.97;81.13;47449.88;5031992;28;20201;-79
2023/07/24 04:09:18;;;;;;;34.30;20.70;;;;;;;-141.97;78.89;47405.69;5031777;28;20174;-78
2023/07/24 04:11:44;;;;;;;35.87;19.73;;;;;;;-141.97;78.27;47442.19;5031920;28;20184;-78
2023/07/24 04:14:10;;;;;;;31.80;20.10;;;;;;;-141.97;78.20;47421.06;5032190;28;20174;-78
2023/07/24 04:16:35;;;;;;;31.90;20.30;;;;;;;-141.97;78.53;47403.75;5031335;28;20170;-78
2023/07/24 04:19:01;;;;;;;39.10;20.77;;;;;;;-141.97;79.42;47411.44;5031638;28;20176;-78
2023/07/24 04:21:26;;;;;;;32.87;20.40;;;;;;;-141.97;78.96;47434.50;5063354;28;20303;-78
2023/07/24 04:23:52;;;;;;;30.87;19.80;;;;;;;-141.97;77.98;47426.81;5031806;28;20169;-77
2023/07/24 04:26:17;;;;;;;33.53;21.10;;;;;;;-141.97;77.49;47426.81;5026760;28;20235;-77
2023/07/24 04:28:42;;;;;;;35.83;22.20;;;;;;;-141.97;76.91;47384.53;5046761;28;20173;-76
2023/07/24 04:31:08;;;;;;;31.27;20.03;;;;;;;-141.97;76.60;47401.84;5050401;28;20665;-77
2023/07/24 04:33:33;;;;;;;35.00;21.07;;;;;;;-141.97;76.33;47449.88;5050474;28;20293;-77
2023/07/24 04:35:58;;;;;;;28.33;17.27;;;;;;;-141.97;74.46;47424.91;5050014;28;20231;-78
2023/07/24 04:38:24;;;;;;;37.07;17.10;;;;;;;-141.97;74.62;47421.06;5049529;28;20600;-77
2023/07/24 04:40:49;;;;;;;29.20;16.50;;;;;;;-141.97;74.41;47442.19;5049431;28;20271;-78
2023/07/24 04:43:15;;;;;;;32.93;17.87;;;;;;;-141.97;74.36;47424.91;5050529;28;20280;-78
2023/07/24 04:45:40;;;;;;;31.07;18.53;;;;;;;-141.97;74.34;47403.75;5050892;28;20169;-79
2023/07/24 04:48:05;;;;;;;29.43;17.43;;;;;;;-141.97;74.58;47438.34;5050549;28;20157;-78
2023/07/24 04:50:32;;;;;;;25.13;16.40;;;;;;;-141.97;74.11;47434.50;5049536;28;20577;-79
2023/07/24 04:52:58;;;;;;;26.17;16.63;;;;;;;-141.97;74.71;47436.44;5050428;28;20170;-78
2023/07/24 04:55:23;;;;;;;32.00;16.83;;;;;;;-141.97;75.43;47430.66;5051981;28;20685;-79
2023/07/24 04:57:48;;;;;;;29.67;18.07;;;;;;;-141.97;75.25;47457.56;5050373;28;20202;-78
2023/07/24 05:00:14;;;;;;;32.50;18.17;;;;;;;-141.97;74.58;47398.00;5050854;28;20394;-79
2023/07/24 05:02:40;;;;;;;30.80;18.77;;;;;;;-141.97;74.66;47446.03;5049180;28;20522;-80
2023/07/24 05:05:05;;;;;;;34.73;20.93;;;;;;;-141.97;75.20;47424.91;5049427;28;20204;-78
2023/07/24 05:07:31;;;;;;;40.17;22.33;;;;;;;-141.97;75.05;47449.88;5050196;28;20166;-79
2023/07/24 05:09:56;;;;;;;40.07;21.03;;;;;;;-141.97;75.29;47434.50;5049473;28;20669;-78
2023/07/24 05:12:22;;;;;;;38.10;22.27;;;;;;;-141.97;74.66;47413.38;5049145;28;20185;-78
2023/07/24 05:14:47;;;;;;;31.90;20.83;;;;;;;-141.97;75.13;47403.75;5049781;28;20291;-78
2023/07/24 05:17:13;;;;;;;35.13;21.00;;;;;;;-141.97;75.62;47438.34;5050013;28;20172;-78
2023/07/24 05:19:38;;;;;;;35.27;22.33;;;;;;;-141.97;74.78;47426.81;5050043;28;20181;-78
2023/07/24 05:22:04;;;;;;;36.83;21.03;;;;;;;-141.97;74.78;47394.16;5049106;28;20235;-79
2023/07/24 05:24:29;;;;;;;35.33;22.17;;;;;;;-141.97;73.79;47430.66;5048391;28;20522;-79
2023/07/24 05:26:54;;;;;;;33.33;21.67;;;;;;;-141.97;73.01;47384.53;5036726;28;20524;-77
2023/07/24 05:29:20;;;;;;;36.03;20.83;;;;;;;-141.97;72.21;47444.13;5049705;28;20219;-78
2023/07/24 05:31:45;;;;;;;36.73;21.80;;;;;;;-141.97;71.39;47407.59;5049589;28;20256;-78
2023/07/24 05:34:11;;;;;;;34.07;20.80;;;;;;;-141.97;71.32;47426.81;5049884;28;20248;-78
2023/07/24 05:36:36;;;;;;;38.47;22.27;;;;;;;-141.97;71.29;47430.66;5049042;28;20642;-78
2023/07/24 05:39:02;;;;;;;33.97;20.90;;;;;;;-141.97;70.73;47374.94;5049811;28;20211;-78
2023/07/24 05:41:28;;;;;;;34.17;20.60;;;;;;;-141.97;70.30;47374.94;5049572;28;20225;-78
2023/07/24 05:43:55;;;;;;;35.93;21.50;;;;;;;-141.97;69.63;47422.97;5049334;28;20195;-79
2023/07/24 05:46:21;;;;;;;34.90;20.93;;;;;;;-141.97;69.28;47409.53;5049378;28;20637;-79
2023/07/24 05:48:46;;;;;;;47.73;21.33;;;;;;;-141.97;68.18;47426.81;5049650;28;20165;-78
2023/07/24 05:51:11;;;;;;;33.43;20.60;;;;;;;-141.97;67.87;47378.78;5049444;28;20188;-78
2023/07/24 05:53:37;;;;;;;29.57;20.03;;;;;;;-141.97;68.01;47424.91;5049083;28;20279;-79
2023/07/24 05:56:03;;;;;;;30.67;20.47;;;;;;;-141.97;66.45;47407.59;5049321;28;20199;-79
2023/07/24 05:58:28;;;;;;;44.47;21.80;;;;;;;-141.97;67.20;47430.66;5048959;28;20179;-78
2023/07/24 06:00:55;;;;;;;32.90;19.67;;;;;;;-141.97;67.59;47417.22;5048930;28;20316;-78
2023/07/24 06:03:21;;;;;;;29.53;20.50;;;;;;;-141.97;66.37;47378.78;5048187;28;20233;-79
2023/07/24 06:05:51;;;;;;;31.30;20.57;;;;;;;-141.97;65.99;47369.16;5048888;28;20200;-78
2023/07/24 06:08:17;;;;;;;33.67;20.30;;;;;;;-141.97;66.37;47338.41;5048344;28;20634;-79
2023/07/24 06:10:42;;;;;;;32.80;20.20;;;;;;;-141.97;65.42;47390.31;5048133;28;20185;-78
2023/07/24 06:13:07;;;;;;;28.27;19.87;;;;;;;-141.97;65.17;47580.59;5048092;28;20161;-77
2023/07/24 06:15:33;;;;;;;31.83;20.03;;;;;;;-141.97;63.51;47413.38;5048281;28;20173;-79
2023/07/24 06:17:58;;;;;;;34.40;20.87;;;;;;;-141.97;63.56;47390.31;5048309;28;20226;-77
2023/07/24 06:20:23;;;;;;;35.97;20.43;;;;;;;-141.97;62.10;47401.84;5048013;28;20707;-77
2023/07/24 06:22:49;;;;;;;31.03;20.53;;;;;;;-141.97;61.22;47355.72;5046973;28;20272;-77
2023/07/24 06:25:14;;;;;;;34.70;20.97;;;;;;;-141.97;60.84;47353.78;5048305;28;20194;-77
2023/07/24 06:27:40;;;;;;;31.75;19.98;;;;;;;-141.97;59.65;47349.94;5036712;28;20233;-78
2023/07/24 06:30:06;;;;;;;31.53;20.37;;;;;;;-141.97;60.02;47388.38;5049063;28;20204;-78
2023/07/24 06:32:31;;;;;;;34.83;19.52;;;;;;;-141.97;59.13;47386.47;5048566;28;20189;-78
2023/07/24 06:34:56;;;;;;;34.45;19.98;;;;;;;-141.97;59.83;47394.16;5048709;28;20198;-78
2023/07/24 06:37:22;;;;;;;32.65;19.83;;;;;;;-141.97;58.94;47369.16;5047373;28;20220;-77
2023/07/24 06:39:47;;;;;;;31.30;20.15;;;;;;;-141.97;58.07;47338.41;5049171;28;20194;-78
2023/07/24 06:42:12;;;;;;;33.10;20.20;;;;;;;-141.97;58.02;47436.44;5048451;28;20292;-78
2023/07/24 06:44:38;;;;;;;28.83;19.48;;;;;;;-141.97;57.28;47215.41;5048382;28;20184;-78
2023/07/24 06:47:03;;;;;;;32.08;19.75;;;;;;;-141.97;57.39;47361.47;5048580;28;20177;-77
2023/07/24 06:49:29;;;;;;;34.67;19.40;;;;;;;-141.97;57.18;47361.47;5048633;28;20200;-78
2023/07/24 06:51:54;;;;;;;29.20;20.15;;;;;;;-141.97;57.32;47338.41;5048551;28;20177;-78
2023/07/24 06:54:19;;;;;;;36.15;19.88;;;;;;;-141.97;57.21;47369.16;5049254;28;20277;-76
2023/07/24 06:56:45;;;;;;;29.23;18.88;;;;;;;-141.97;57.21;47369.16;5048625;28;20172;-77
2023/07/24 06:59:10;;;;;;;28.13;19.70;;;;;;;-141.97;55.22;47323.03;5049089;28;20226;-76
2023/07/24 07:01:35;;;;;;;31.92;18.77;;;;;;;-141.97;54.40;47367.25;5048820;28;20310;-77
2023/07/24 07:04:01;;;;;;;33.95;18.90;;;;;;;-141.97;54.50;47353.78;5048507;28;20656;-77
2023/07/24 07:06:26;;;;;;;30.30;18.70;;;;;;;-141.97;53.61;47349.94;5048838;28;20254;-77
2023/07/24 07:08:52;;;;;;;30.98;18.60;;;;;;;-141.97;53.45;47353.78;5046478;28;20190;-78
2023/07/24 07:11:17;;;;;;;27.67;18.00;;;;;;;-141.97;52.96;47334.56;5047262;28;20260;-77
2023/07/24 07:13:42;;;;;;;28.73;18.95;;;;;;;-141.97;52.20;47303.81;5047378;28;20267;-77
2023/07/24 07:16:08;;;;;;;29.73;17.75;;;;;;;-141.97;51.72;47376.84;5048395;28;20175;-77
2023/07/24 07:18:33;;;;;;;28.65;18.27;;;;;;;-141.97;51.21;47309.59;5047814;28;20278;-77
2023/07/24 07:20:58;;;;;;;29.60;17.88;;;;;;;-141.97;51.53;47330.72;5047956;28;20292;-78
2023/07/24 07:23:24;;;;;;;29.27;18.45;;;;;;;-141.97;51.43;47336.50;5048308;28;20655;-78
2023/07/24 07:25:51;;;;;;;27.02;17.38;;;;;;;-141.97;52.67;47326.88;5049053;28;20227;-77
2023/07/24 07:28:17;;;;;;;27.48;17.70;;;;;;;-141.97;53.14;47340.34;5043344;28;20248;-78
2023/07/24 07:30:43;;;;;;;30.55;17.92;;;;;;;-141.97;52.49;47353.78;5051272;28;21394;-78
2023/07/24 07:33:09;;;;;;;27.38;18.48;;;;;;;-141.97;51.88;47307.66;5051548;28;20168;-78
2023/07/24 07:35:35;;;;;;;29.15;18.27;;;;;;;-141.97;51.02;47490.25;5051499;28;20183;-77
2023/07/24 07:38:01;;;;;;;28.45;18.30;;;;;;;-141.97;49.53;47336.50;5051536;28;20221;-77
2023/07/24 07:40:27;;;;;;;29.40;18.95;;;;;;;-141.97;49.58;47311.50;5051484;28;20303;-77
2023/07/24 07:42:56;;;;;;;26.60;18.23;;;;;;;-141.97;49.26;47303.81;5052052;28;20289;-77
2023/07/24 07:45:23;;;;;;;25.75;17.58;;;;;;;-141.97;48.02;47307.66;5051293;28;20232;-77
2023/07/24 07:47:48;;;;;;;24.42;17.00;;;;;;;-141.97;48.21;47321.13;5051530;28;20178;-77
2023/07/24 07:50:14;;;;;;;29.02;16.95;;;;;;;-141.97;47.48;47326.88;5051717;28;20310;-77
2023/07/24 07:52:40;;;;;;;26.27;16.95;;;;;;;-141.97;47.96;47315.34;5052146;28;20252;-77
2023/07/24 07:55:06;;;;;;;26.23;17.00;;;;;;;-141.97;47.78;47313.44;5051271;28;20191;-77
2023/07/24 07:57:36;;;;;;;28.58;17.02;;;;;;;-141.97;47.37;47294.22;5050848;28;20185;-77
2023/07/24 08:00:02;;;;;;;25.73;16.55;;;;;;;-141.97;46.85;47313.44;5051412;28;20161;-77
2023/07/24 08:02:27;;;;;;;23.88;16.27;;;;;;;-141.97;46.59;47313.44;5051252;28;20173;-77
2023/07/24 08:04:53;;;;;;;27.73;17.38;;;;;;;-141.97;46.66;47307.66;5050961;28;20530;-77
2023/07/24 08:07:18;;;;;;;26.52;16.38;;;;;;;-141.97;46.59;47230.78;5050925;28;20169;-77
2023/07/24 08:09:46;;;;;;;28.60;18.08;;;;;;;-141.97;46.52;47346.09;5049155;28;20214;-77
2023/07/24 08:12:12;;;;;;;29.58;17.67;;;;;;;-141.97;46.33;47296.13;5050558;28;20196;-77
2023/07/24 08:14:37;;;;;;;30.20;18.05;;;;;;;-141.97;45.51;47298.06;5049246;28;20546;-78
2023/07/24 08:17:02;;;;;;;28.05;17.10;;;;;;;-141.97;45.44;47349.94;5050869;28;20167;-78
2023/07/24 08:19:29;;;;;;;23.48;17.70;;;;;;;-141.97;45.17;47280.75;5049877;28;20655;-77
2023/07/24 08:21:54;;;;;;;25.58;17.35;;;;;;;-141.97;44.92;47288.44;5049880;28;20227;-76
2023/07/24 08:24:20;;;;;;;28.63;17.15;;;;;;;-141.97;44.44;47276.91;5049630;28;20195;-77
2023/07/24 08:26:45;;;;;;;24.33;17.42;;;;;;;-141.97;44.74;47259.63;5050269;28;20167;-76
2023/07/24 08:29:10;;;;;;;24.55;17.05;;;;;;;-141.97;44.78;47267.31;5050006;28;20195;-76
2023/07/24 08:31:36;;;;;;;27.83;17.38;;;;;;;-141.97;44.74;47278.84;5036346;28;20232;-77
2023/07/24 08:34:01;;;;;;;24.40;16.38;;;;;;;-141.97;43.11;47275.00;5060243;28;20269;-77
2023/07/24 08:36:27;;;;;;;21.35;14.98;;;;;;;-141.97;42.40;47271.16;5059037;28;20326;-77
2023/07/24 08:38:52;;;;;;;19.35;14.18;;;;;;;-141.97;42.24;47261.53;5049441;28;20521;-77
2023/07/24 08:41:17;;;;;;;21.23;14.48;;;;;;;-141.97;42.34;47253.84;5049714;28;20251;-77
2023/07/24 08:43:43;;;;;;;20.25;14.68;;;;;;;-141.97;41.54;47253.84;5049893;28;20266;-77
2023/07/24 08:46:10;;;;;;;21.25;15.25;;;;;;;-141.97;42.31;47267.31;5049929;28;20220;-77
2023/07/24 08:48:36;;;;;;;21.33;14.73;;;;;;;-141.97;42.55;47307.66;5052385;28;20199;-78
2023/07/24 08:51:07;;;;;;;20.75;14.60;;;;;;;-141.97;42.34;47307.66;5050011;28;20184;-79
2023/07/24 08:53:35;;;;;;;34.08;16.55;;;;;;;-141.97;43.50;47276.91;5050260;28;20180;-78
2023/07/24 08:56:02;;;;;;;23.70;17.05;;;;;;;-141.97;43.76;47290.38;5048055;28;20196;-78
2023/07/24 08:58:28;;;;;;;20.73;15.85;;;;;;;-141.97;42.79;47269.22;5051046;28;20477;-77
2023/07/24 09:00:53;;;;;;;23.90;16.60;;;;;;;-141.97;42.48;47275.00;5050312;28;20203;-77
2023/07/24 09:03:19;;;;;;;22.13;16.35;;;;;;;-141.97;42.86;47299.97;5049538;28;20187;-78
2023/07/24 09:05:45;;;;;;;22.55;16.17;;;;;;;-141.97;43.04;47294.22;5049851;28;20279;-78
2023/07/24 09:08:11;;;;;;;22.13;16.77;;;;;;;-141.97;43.39;47267.31;5049351;28;20200;-78
2023/07/24 09:10:37;;;;;;;22.92;16.38;;;;;;;-141.97;42.16;47273.06;5049659;28;20224;-78
2023/07/24 09:13:03;;;;;;;24.92;16.38;;;;;;;-141.97;42.05;47226.94;5048221;28;20175;-78
2023/07/24 09:15:39;;;;;;;24.73;17.23;;;;;;;-141.97;41.70;47253.84;5047660;28;20200;-78
2023/07/24 09:18:04;;;;;;;22.00;16.30;;;;;;;-141.97;41.82;47357.63;5049487;28;20231;-79
2023/07/24 09:20:41;;;;;;;27.23;17.45;;;;;;;-141.97;41.84;47276.91;5049830;28;20196;-80
2023/07/24 09:23:10;;;;;;;24.42;16.90;;;;;;;-141.97;41.60;47203.88;5049019;28;20180;-80
2023/07/24 09:25:38;;;;;;;22.25;16.85;;;;;;;-141.97;42.25;47288.44;5048899;28;20186;-79
2023/07/24 09:28:15;;;;;;;27.92;16.98;;;;;;;-141.97;41.59;47267.31;5048102;28;20215;-80
2023/07/24 09:30:41;;;;;;;21.08;16.20;;;;;;;-141.97;40.61;47250.00;5038405;28;20315;-80
2023/07/24 09:33:07;;;;;;;20.90;16.60;;;;;;;-141.97;40.05;47286.53;5048983;28;20243;-79
2023/07/24 09:35:33;;;;;;;19.52;15.35;;;;;;;-141.97;39.62;47228.88;5050561;28;20165;-79
2023/07/24 09:38:06;;;;;;;19.38;16.13;;;;;;;-141.97;39.97;47276.91;5048603;28;20839;-80
2023/07/24 09:40:40;;;;;;;22.73;16.55;;;;;;;-141.97;39.19;47234.63;5048763;28;20596;-81
2023/07/24 09:43:22;;;;;;;24.00;17.88;;;;;;;-141.97;40.73;47173.13;5048658;28;20200;-80
2023/07/24 09:45:49;;;;;;;23.65;17.75;;;;;;;-141.97;41.15;47248.09;5048511;28;20618;-79
2023/07/24 09:48:15;;;;;;;23.30;17.30;;;;;;;-141.97;40.84;47207.72;5048318;28;20181;-79
2023/07/24 09:50:42;;;;;;;22.77;17.20;;;;;;;-141.97;39.97;47251.94;5049431;28;20238;-79
2023/07/24 09:53:31;;;;;;;21.27;17.45;;;;;;;-141.97;40.13;47230.78;5048193;28;20185;-80
2023/07/24 09:56:08;;;;;;;19.95;15.55;;;;;;;-141.97;39.91;47265.38;5047613;28;20271;-79
2023/07/24 09:58:35;;;;;;;20.25;14.77;;;;;;;-141.97;39.45;47255.78;5048034;28;20259;-80
2023/07/24 10:01:06;;;;;;;20.35;14.95;;;;;;;-141.97;38.53;47240.41;5047709;28;20201;-79
2023/07/24 10:03:38;;;;;;;17.75;14.30;;;;;;;-141.97;38.93;47242.31;5048805;28;20208;-81
2023/07/24 10:06:04;;;;;;;18.20;13.98;;;;;;;-141.97;39.15;47242.31;5048061;28;20235;-80
2023/07/24 10:08:30;;;;;;;18.95;14.43;;;;;;;-141.97;38.83;47194.28;5049225;28;20181;-80
2023/07/24 10:10:58;;;;;;;21.27;14.50;;;;;;;-141.97;38.76;47250.00;5048836;28;20166;-80
2023/07/24 10:13:26;;;;;;;18.33;14.00;;;;;;;-141.97;37.95;47217.34;5046519;28;20569;-79
2023/07/24 10:15:52;;;;;;;17.70;14.23;;;;;;;-141.97;37.73;47213.50;5047260;28;20600;-80
2023/07/24 10:18:18;;;;;;;21.52;14.25;;;;;;;-141.97;38.50;47236.56;5048435;28;20185;-79
2023/07/24 10:20:44;;;;;;;16.45;13.25;;;;;;;-141.97;38.25;47246.16;5048031;28;20208;-79
2023/07/24 10:23:15;;;;;;;17.58;13.80;;;;;;;-141.97;38.36;47250.00;5047639;28;20334;-79
2023/07/24 10:25:43;;;;;;;18.63;14.20;;;;;;;-141.97;37.92;47238.47;5048717;28;20173;-79
2023/07/24 10:28:11;;;;;;;18.35;14.32;;;;;;;-141.97;38.34;47278.84;5049104;28;20322;-79
2023/07/24 10:30:41;;;;;;;18.08;14.27;;;;;;;-141.97;38.75;47188.50;5037421;28;20231;-79
2023/07/24 10:33:19;;;;;;;19.42;14.35;;;;;;;-141.97;38.08;47232.72;5046599;28;20255;-81
2023/07/24 10:35:47;;;;;;;21.27;14.25;;;;;;;-141.97;38.24;47250.00;5048244;28;20681;-80
2023/07/24 10:38:15;;;;;;;16.55;13.70;;;;;;;-141.97;38.31;47234.63;5047299;28;20213;-80
2023/07/24 10:40:42;;;;;;;19.73;14.15;;;;;;;-141.97;38.09;47273.06;5049333;28;20641;-79
2023/07/24 10:43:10;;;;;;;17.77;13.90;;;;;;;-141.97;37.86;47261.53;5048106;28;20689;-78
2023/07/24 10:45:54;;;;;;;25.63;14.13;;;;;;;-141.97;37.50;47273.06;5047890;28;20190;-81
2023/07/24 10:48:21;;;;;;;19.92;14.10;;;;;;;-141.97;37.86;47251.94;5049136;28;20177;-78
2023/07/24 10:50:48;;;;;;;17.77;14.35;;;;;;;-141.97;37.96;47261.53;5048353;28;20220;-79
2023/07/24 10:53:16;;;;;;;18.88;14.23;;;;;;;-141.97;37.19;47261.53;5048604;28;20181;-80
2023/07/24 10:55:43;;;;;;;19.33;14.25;;;;;;;-141.97;37.42;47250.00;5046946;28;20276;-80
2023/07/24 10:58:09;;;;;;;21.08;14.63;;;;;;;-141.97;36.56;47242.31;5045269;28;20283;-79